Time;durP1;ratioP1;P1;durP2;ratioP2;P2;SDS_P1;SDS_P2;PMS_P1;PMS_P2;Temp;Humidity;BMP_temperature;BMP_pressure;BME280_temperature;BME280_humidity;BME280_pressure;Samples;Min_cycle;Max_cycle;Signal;HPM_P1;HPM_P2
2022/04/22 00:02:03;;;;;;;11.53;6.93;;;10.20;68.60;;;;;;5028863;28;20110;-68
2022/04/22 00:04:29;;;;;;;10.00;7.53;;;10.20;68.50;;;;;;5038481;28;20051;-68
2022/04/22 00:06:55;;;;;;;12.45;7.60;;;10.10;68.60;;;;;;5024413;28;20076;-68
2022/04/22 00:09:20;;;;;;;15.77;6.87;;;10.10;68.80;;;;;;5025610;28;20161;-68
2022/04/22 00:11:46;;;;;;;12.23;7.37;;;10.00;68.90;;;;;;5050659;28;20047;-68
2022/04/22 00:14:12;;;;;;;12.83;7.03;;;10.00;69.10;;;;;;5033885;28;20044;-68
2022/04/22 00:16:38;;;;;;;14.47;8.37;;;9.90;69.10;;;;;;5053298;28;20032;-68
2022/04/22 00:19:03;;;;;;;13.87;7.57;;;9.80;69.20;;;;;;5042926;28;20087;-68
2022/04/22 00:21:29;;;;;;;12.53;7.47;;;9.80;69.50;;;;;;5047137;28;20135;-68
2022/04/22 00:23:55;;;;;;;11.23;6.97;;;9.80;69.70;;;;;;5030524;28;20549;-68
2022/04/22 00:26:21;;;;;;;17.92;7.97;;;9.80;69.60;;;;;;5046928;28;20040;-68
2022/04/22 00:28:48;;;;;;;14.50;7.68;;;9.70;70.00;;;;;;5045381;28;20040;-68
2022/04/22 00:31:14;;;;;;;12.95;7.68;;;9.70;70.00;;;;;;5034127;28;20106;-68
2022/04/22 00:33:41;;;;;;;12.45;7.38;;;9.60;70.10;;;;;;5050222;28;20055;-68
2022/04/22 00:36:06;;;;;;;11.85;6.97;;;9.60;70.20;;;;;;5021401;28;20402;-68
2022/04/22 00:38:32;;;;;;;15.63;7.73;;;9.60;70.40;;;;;;5050032;28;20049;-68
2022/04/22 00:40:59;;;;;;;14.33;6.93;;;9.60;70.20;;;;;;5046048;28;20080;-68
2022/04/22 00:43:26;;;;;;;12.52;7.80;;;9.50;70.40;;;;;;5017510;28;20071;-68
2022/04/22 00:45:52;;;;;;;13.13;7.20;;;9.50;70.40;;;;;;5028629;28;20049;-68
2022/04/22 00:48:20;;;;;;;12.75;7.38;;;9.50;70.80;;;;;;5025826;28;20041;-68
2022/04/22 00:50:46;;;;;;;13.40;7.38;;;9.40;70.70;;;;;;5023665;28;20049;-68
2022/04/22 00:53:14;;;;;;;11.27;7.43;;;9.40;70.90;;;;;;5027210;28;20112;-68
2022/04/22 00:55:41;;;;;;;12.52;7.53;;;9.40;70.70;;;;;;5044382;28;20037;-68
2022/04/22 00:58:07;;;;;;;10.50;7.47;;;9.40;71.10;;;;;;5028938;28;20495;-68
2022/04/22 01:00:34;;;;;;;12.02;7.90;;;9.40;71.10;;;;;;5033933;28;20124;-68
2022/04/22 01:03:00;;;;;;;13.65;7.45;;;9.40;71.30;;;;;;5048994;28;20044;-68
2022/04/22 01:10:56;;;;;;;12.73;7.60;;;9.20;71.70;;;;;;5047748;28;20058;-68
2022/04/22 01:13:23;;;;;;;12.93;7.40;;;9.10;71.80;;;;;;5032728;28;20052;-68
2022/04/22 01:15:49;;;;;;;11.80;7.97;;;9.10;72.40;;;;;;5006523;28;20076;-68
2022/04/22 01:18:15;;;;;;;11.30;7.30;;;9.10;72.30;;;;;;5048112;28;20084;-68
2022/04/22 01:20:41;;;;;;;15.30;7.90;;;9.10;72.40;;;;;;5029929;28;20078;-68
2022/04/22 01:23:07;;;;;;;17.10;8.17;;;9.10;72.60;;;;;;5046696;28;20036;-68
2022/04/22 01:25:32;;;;;;;14.17;7.77;;;9.10;72.70;;;;;;5040956;28;20044;-68
2022/04/22 01:27:59;;;;;;;13.73;7.60;;;9.00;72.50;;;;;;5022191;28;20051;-68
2022/04/22 01:30:25;;;;;;;11.43;7.30;;;9.00;72.80;;;;;;5032179;28;20068;-68
2022/04/22 01:32:52;;;;;;;15.60;7.97;;;9.00;72.50;;;;;;5028203;28;20059;-68
2022/04/22 01:35:19;;;;;;;12.63;7.38;;;8.90;72.80;;;;;;5021536;28;20033;-68
2022/04/22 01:37:45;;;;;;;15.18;7.53;;;8.80;72.80;;;;;;5035521;28;20040;-68
2022/04/22 01:40:11;;;;;;;11.40;7.75;;;8.80;72.90;;;;;;5041644;28;20048;-68
2022/04/22 01:42:37;;;;;;;15.52;8.02;;;8.80;72.80;;;;;;5047591;28;20533;-68
2022/04/22 01:45:04;;;;;;;13.70;7.70;;;8.70;73.20;;;;;;5049113;28;20135;-68
2022/04/22 01:47:30;;;;;;;14.63;7.97;;;8.70;73.40;;;;;;5040418;28;20081;-68
2022/04/22 01:49:56;;;;;;;16.20;8.32;;;8.70;73.30;;;;;;5031768;28;20044;-68
2022/04/22 01:52:23;;;;;;;15.43;7.53;;;8.60;73.20;;;;;;5032459;28;20047;-67
2022/04/22 01:54:52;;;;;;;13.15;8.00;;;8.60;73.20;;;;;;5025892;28;20106;-67
2022/04/22 01:57:18;;;;;;;18.33;8.25;;;8.60;73.20;;;;;;5045010;28;20044;-68
2022/04/22 01:59:46;;;;;;;13.98;7.60;;;8.50;73.50;;;;;;5030847;28;20123;-68
2022/04/22 02:02:13;;;;;;;13.70;8.00;;;8.50;73.30;;;;;;5047590;28;20101;-68
2022/04/22 02:04:39;;;;;;;12.35;7.82;;;8.50;73.40;;;;;;5032111;28;20087;-68
2022/04/22 02:07:05;;;;;;;12.30;7.75;;;8.40;73.40;;;;;;5043361;28;20480;-68
2022/04/22 02:09:31;;;;;;;14.75;8.32;;;8.40;73.30;;;;;;5029199;28;20070;-68
2022/04/22 02:11:57;;;;;;;14.50;8.00;;;8.30;73.40;;;;;;5044760;28;20041;-68
2022/04/22 02:14:23;;;;;;;14.50;8.10;;;8.30;73.40;;;;;;5043551;28;20048;-68
2022/04/22 02:16:49;;;;;;;13.48;7.95;;;8.20;73.20;;;;;;5027967;28;20491;-68
2022/04/22 02:19:14;;;;;;;15.00;7.97;;;8.20;73.40;;;;;;5031633;28;20147;-68
2022/04/22 02:21:41;;;;;;;12.10;7.33;;;8.20;73.50;;;;;;5025869;28;20087;-68
2022/04/22 02:24:07;;;;;;;14.10;7.95;;;8.20;73.60;;;;;;5038504;28;20033;-68
2022/04/22 02:28:31;;;;;;;12.32;8.18;;;8.20;73.50;;;;;;5031779;28;20067;-68
2022/04/22 02:29:19;;;;;;;14.43;8.20;;;8.10;73.60;;;;;;5042749;28;20150;-68
2022/04/22 02:31:45;;;;;;;14.67;7.90;;;8.10;73.70;;;;;;5043735;28;20594;-68
2022/04/22 02:34:11;;;;;;;15.67;7.93;;;8.10;73.80;;;;;;5032966;28;20126;-68
2022/04/22 02:36:36;;;;;;;14.77;8.87;;;8.00;73.80;;;;;;5034565;28;20048;-68
2022/04/22 02:39:02;;;;;;;16.00;8.10;;;8.10;74.30;;;;;;5046162;28;20044;-68
2022/04/22 02:46:56;;;;;;;13.23;7.55;;;8.00;74.50;;;;;;5032830;28;20044;-68
2022/04/22 02:49:22;;;;;;;12.47;7.43;;;8.00;74.10;;;;;;5030018;28;20044;-68
2022/04/22 02:51:48;;;;;;;12.00;7.67;;;8.00;74.20;;;;;;5015448;28;20134;-68
2022/04/22 02:54:13;;;;;;;17.63;7.50;;;7.90;74.20;;;;;;5047619;28;20068;-68
2022/04/22 02:56:39;;;;;;;12.57;6.97;;;8.00;74.00;;;;;;5028357;28;20159;-67
2022/04/22 02:59:06;;;;;;;19.47;7.83;;;8.00;73.80;;;;;;5046978;28;20615;-68
2022/04/22 03:01:33;;;;;;;11.80;6.47;;;8.00;73.70;;;;;;5025674;28;20123;-68
2022/04/22 03:03:59;;;;;;;10.25;6.93;;;8.00;73.60;;;;;;5044281;28;20056;-68
2022/04/22 03:06:26;;;;;;;12.97;6.67;;;8.00;73.50;;;;;;5040789;28;20044;-68
2022/04/22 03:08:52;;;;;;;11.38;6.85;;;7.90;73.40;;;;;;5046438;28;20131;-68
2022/04/22 03:11:21;;;;;;;10.75;6.50;;;8.00;73.30;;;;;;5047518;28;20047;-68
2022/04/22 03:13:49;;;;;;;11.80;5.90;;;8.00;73.10;;;;;;5043374;28;20142;-68
2022/04/22 03:16:20;;;;;;;14.07;6.95;;;7.90;73.00;;;;;;5064409;28;20435;-68
2022/04/22 03:18:45;;;;;;;11.98;6.75;;;7.90;73.10;;;;;;5047950;28;20067;-68
2022/04/22 03:21:11;;;;;;;11.27;6.40;;;7.80;73.10;;;;;;5045848;28;20044;-68
2022/04/22 03:23:37;;;;;;;11.53;6.70;;;7.80;73.10;;;;;;5035069;28;20416;-68
2022/04/22 03:26:02;;;;;;;12.70;6.73;;;7.80;73.20;;;;;;5046820;28;20450;-68
2022/04/22 03:28:29;;;;;;;11.27;6.70;;;7.70;73.00;;;;;;5044372;28;20041;-68
2022/04/22 03:30:55;;;;;;;11.50;6.72;;;7.80;73.20;;;;;;5050960;28;20389;-68
2022/04/22 03:33:20;;;;;;;9.60;6.13;;;7.70;73.00;;;;;;5050290;28;20158;-68
2022/04/22 03:35:50;;;;;;;12.37;7.00;;;7.70;73.10;;;;;;5045052;28;20040;-68
2022/04/22 03:38:16;;;;;;;10.23;6.45;;;7.70;73.00;;;;;;5045626;28;20127;-68
2022/04/22 03:40:42;;;;;;;11.45;6.40;;;7.60;73.10;;;;;;5047785;28;20072;-68
2022/04/22 03:43:08;;;;;;;10.03;6.50;;;7.60;73.40;;;;;;5015081;28;20063;-67
2022/04/22 03:45:34;;;;;;;14.93;6.97;;;7.60;73.30;;;;;;5044398;28;20039;-68
2022/04/22 03:47:59;;;;;;;10.07;6.50;;;7.60;73.40;;;;;;5032019;28;20048;-68
2022/04/22 03:50:29;;;;;;;10.00;6.03;;;7.50;73.40;;;;;;5027933;28;20040;-68
2022/04/22 03:52:54;;;;;;;11.60;6.72;;;7.50;73.40;;;;;;5023867;28;20447;-68
2022/04/22 03:55:20;;;;;;;10.17;6.60;;;7.40;73.50;;;;;;5024209;28;20382;-68
2022/04/22 04:00:32;;;;;;;11.98;6.22;;;7.40;73.80;;;;;;5049850;28;20048;-67
2022/04/22 04:02:58;;;;;;;11.40;6.72;;;7.40;73.50;;;;;;5022529;28;20049;-67
2022/04/22 04:05:24;;;;;;;10.83;6.37;;;7.40;73.60;;;;;;5046746;28;20312;-67
2022/04/22 04:07:49;;;;;;;11.00;6.18;;;7.40;73.60;;;;;;5044763;28;20040;-67
2022/04/22 04:15:58;;;;;;;14.63;7.18;;;7.20;73.60;;;;;;5044368;28;20124;-67
2022/04/22 04:18:29;;;;;;;9.07;5.78;;;7.20;73.80;;;;;;5017185;28;20982;-68
2022/04/22 04:23:40;;;;;;;9.88;6.40;;;7.10;74.20;;;;;;5058706;28;20048;-67
2022/04/22 04:26:07;;;;;;;12.02;6.28;;;7.10;74.30;;;;;;5023024;28;20049;-67
2022/04/22 04:28:34;;;;;;;15.15;7.20;;;7.10;74.10;;;;;;5026747;28;20127;-67
2022/04/22 04:31:01;;;;;;;13.38;7.95;;;7.00;74.30;;;;;;5049743;28;20050;-67
2022/04/22 04:33:28;;;;;;;16.33;7.32;;;7.00;74.50;;;;;;5035174;28;20093;-67
2022/04/22 04:35:54;;;;;;;12.60;6.57;;;7.00;74.50;;;;;;5042569;28;20440;-67
2022/04/22 04:38:20;;;;;;;12.60;6.50;;;6.90;74.70;;;;;;5042038;28;20045;-67
2022/04/22 04:40:46;;;;;;;11.60;6.43;;;7.00;74.70;;;;;;5032876;28;20508;-67
2022/04/22 04:43:12;;;;;;;12.32;7.03;;;6.90;74.60;;;;;;5063016;28;20043;-67
2022/04/22 04:45:38;;;;;;;11.45;6.43;;;6.90;75.00;;;;;;5039703;28;20127;-67
2022/04/22 04:48:04;;;;;;;12.77;6.83;;;6.90;75.20;;;;;;5028294;28;20496;-67
2022/04/22 04:50:30;;;;;;;12.98;7.20;;;6.90;75.00;;;;;;5051304;28;20090;-68
2022/04/22 04:52:57;;;;;;;9.90;6.72;;;7.00;74.80;;;;;;5044937;28;20089;-68
2022/04/22 04:55:23;;;;;;;13.02;6.65;;;6.90;74.80;;;;;;5051038;28;20071;-67
2022/04/22 04:57:48;;;;;;;11.20;6.40;;;7.00;74.70;;;;;;5042170;28;20068;-67
2022/04/22 05:00:15;;;;;;;13.63;7.47;;;7.00;74.80;;;;;;5033575;28;20139;-68
2022/04/22 05:02:40;;;;;;;11.48;6.50;;;7.00;74.80;;;;;;5044288;28;20040;-67
2022/04/22 05:05:07;;;;;;;11.40;6.57;;;7.00;74.70;;;;;;5051689;28;20050;-67
2022/04/22 05:07:33;;;;;;;10.43;6.80;;;7.10;74.70;;;;;;5048022;28;20182;-67
2022/04/22 05:09:59;;;;;;;11.90;6.40;;;7.10;74.50;;;;;;5031692;28;20048;-67
2022/04/22 05:12:25;;;;;;;12.57;6.30;;;7.10;74.50;;;;;;5022643;28;20068;-68
2022/04/22 05:14:52;;;;;;;12.20;5.88;;;7.20;74.50;;;;;;5046206;28;20056;-68
2022/04/22 05:17:18;;;;;;;9.10;5.90;;;7.10;74.40;;;;;;5039949;28;20036;-67
2022/04/22 05:19:43;;;;;;;11.13;6.17;;;7.10;74.30;;;;;;5050614;28;20052;-68
2022/04/22 05:22:09;;;;;;;9.33;6.20;;;7.20;74.40;;;;;;5046097;28;20040;-68
2022/04/22 05:24:35;;;;;;;9.77;5.77;;;7.20;74.10;;;;;;5042083;28;20092;-68
2022/04/22 05:27:01;;;;;;;9.90;5.83;;;7.20;74.10;;;;;;5015449;28;20086;-68
2022/04/22 05:34:55;;;;;;;10.45;5.50;;;7.30;73.90;;;;;;5050198;28;20041;-68
2022/04/22 05:37:21;;;;;;;8.47;5.27;;;7.30;73.80;;;;;;5029385;28;20473;-68
2022/04/22 05:39:47;;;;;;;9.40;5.53;;;7.40;73.50;;;;;;5049784;28;20048;-68
2022/04/22 05:42:13;;;;;;;10.87;5.93;;;7.40;73.30;;;;;;5049042;28;20047;-68
2022/04/22 05:44:39;;;;;;;7.75;5.07;;;7.40;73.10;;;;;;5048550;28;20105;-67
2022/04/22 05:47:06;;;;;;;7.22;4.70;;;7.50;72.90;;;;;;5026795;28;20037;-67
2022/04/22 05:49:32;;;;;;;9.93;5.07;;;7.50;72.80;;;;;;5034205;28;20047;-67
2022/04/22 05:51:58;;;;;;;9.13;4.95;;;7.60;72.50;;;;;;5042133;28;20044;-67
2022/04/22 05:54:23;;;;;;;8.13;4.97;;;7.60;72.20;;;;;;5018094;28;20070;-67
2022/04/22 05:56:49;;;;;;;6.87;4.50;;;7.70;72.30;;;;;;5048586;28;20101;-67
2022/04/22 05:59:15;;;;;;;9.23;5.00;;;7.70;72.20;;;;;;5045750;28;20041;-67
2022/04/22 06:01:40;;;;;;;9.23;4.30;;;7.80;72.00;;;;;;5024821;28;20053;-68
2022/04/22 06:04:06;;;;;;;10.43;5.07;;;7.80;71.90;;;;;;5043439;28;20036;-68
2022/04/22 06:06:32;;;;;;;9.10;4.53;;;7.90;71.60;;;;;;5032895;28;20048;-68
2022/04/22 06:11:42;;;;;;;8.07;4.38;;;8.00;71.60;;;;;;5035228;28;20115;-67
2022/04/22 06:14:09;;;;;;;7.15;4.20;;;8.00;71.50;;;;;;5033544;28;20040;-67
2022/04/22 06:16:36;;;;;;;7.07;4.20;;;8.10;70.90;;;;;;5046545;28;20136;-67
2022/04/22 06:19:02;;;;;;;5.20;3.85;;;8.20;70.50;;;;;;5025440;28;20061;-67
2022/04/22 06:21:30;;;;;;;5.88;3.80;;;8.30;70.20;;;;;;5041196;28;20490;-67
2022/04/22 06:23:56;;;;;;;7.03;3.72;;;8.30;70.50;;;;;;5024416;28;20051;-67
2022/04/22 06:26:21;;;;;;;7.17;3.50;;;8.30;70.60;;;;;;5038721;28;20487;-67
2022/04/22 06:28:47;;;;;;;5.83;3.30;;;8.50;69.90;;;;;;5028458;28;20094;-67
2022/04/22 06:31:13;;;;;;;6.07;3.60;;;8.60;69.50;;;;;;5011334;28;20043;-68
2022/04/22 06:33:39;;;;;;;7.10;3.60;;;8.60;69.60;;;;;;5045069;28;20505;-68
2022/04/22 06:36:07;;;;;;;4.93;3.37;;;8.80;69.50;;;;;;5032523;28;20036;-68
2022/04/22 06:38:36;;;;;;;6.35;3.80;;;8.90;68.90;;;;;;5030942;28;20779;-68
2022/04/22 06:46:30;;;;;;;7.00;3.15;;;9.90;65.60;;;;;;5046511;28;20580;-68
2022/04/22 06:48:56;;;;;;;7.10;3.03;;;9.90;65.40;;;;;;5031469;28;20052;-68
2022/04/22 06:51:23;;;;;;;5.33;2.90;;;9.80;64.90;;;;;;5047872;28;20238;-68
2022/04/22 06:53:52;;;;;;;5.65;2.80;;;9.70;65.30;;;;;;5029464;28;20446;-68
2022/04/22 06:56:26;;;;;;;5.93;3.13;;;9.70;64.70;;;;;;5037063;28;20443;-68
2022/04/22 06:58:52;;;;;;;8.35;3.70;;;9.70;64.60;;;;;;5049258;28;20033;-68
2022/04/22 07:01:19;;;;;;;6.90;2.73;;;9.70;64.90;;;;;;5051434;28;20040;-68
2022/04/22 07:03:45;;;;;;;6.07;2.88;;;9.70;65.40;;;;;;5062303;28;20291;-68
2022/04/22 07:06:11;;;;;;;6.10;2.70;;;9.70;64.60;;;;;;5002920;28;20090;-68
2022/04/22 07:08:37;;;;;;;4.40;2.80;;;9.80;64.20;;;;;;5035393;28;20032;-68
2022/04/22 07:11:06;;;;;;;7.63;3.00;;;9.90;63.80;;;;;;5043182;28;20041;-68
2022/04/22 07:13:32;;;;;;;8.18;3.17;;;9.90;63.70;;;;;;5033965;28;20040;-68
2022/04/22 07:15:59;;;;;;;5.33;2.43;;;10.00;63.30;;;;;;5031252;28;20110;-68
2022/04/22 07:18:25;;;;;;;6.68;2.50;;;10.10;62.80;;;;;;5050601;28;20654;-68
2022/04/22 07:20:51;;;;;;;4.85;2.20;;;10.10;63.50;;;;;;5050580;28;20041;-68
2022/04/22 07:23:17;;;;;;;4.93;2.60;;;10.20;63.30;;;;;;5049722;28;20049;-68
2022/04/22 07:25:45;;;;;;;6.13;2.23;;;10.30;62.90;;;;;;5033813;28;20044;-68
2022/04/22 07:28:14;;;;;;;5.15;2.38;;;10.40;62.30;;;;;;5045798;28;20080;-68
2022/04/22 07:30:43;;;;;;;5.25;2.20;;;10.50;62.00;;;;;;5033254;28;20549;-68
2022/04/22 07:33:10;;;;;;;4.13;2.03;;;10.60;61.30;;;;;;5050026;28;20047;-68
2022/04/22 07:35:36;;;;;;;4.55;2.33;;;10.70;60.80;;;;;;5018781;28;20048;-68
2022/04/22 07:38:02;;;;;;;5.27;2.63;;;10.80;61.30;;;;;;5034115;28;20043;-68
2022/04/22 07:40:28;;;;;;;4.37;2.30;;;10.90;61.80;;;;;;5026396;28;20323;-68
2022/04/22 07:48:26;;;;;;;3.92;2.40;;;11.20;61.60;;;;;;5026008;28;20045;-68
2022/04/22 07:50:54;;;;;;;4.30;2.60;;;11.30;61.10;;;;;;5034090;28;20049;-68
2022/04/22 07:53:21;;;;;;;5.25;2.10;;;11.30;61.30;;;;;;5050029;28;20040;-68
2022/04/22 07:55:48;;;;;;;4.57;1.92;;;11.40;60.60;;;;;;5022079;28;20044;-68
2022/04/22 07:58:14;;;;;;;6.25;2.20;;;11.50;60.30;;;;;;5046554;28;20037;-68
2022/04/22 08:00:41;;;;;;;4.68;2.28;;;11.60;60.10;;;;;;5026026;28;20417;-68
2022/04/22 08:03:09;;;;;;;3.70;2.15;;;11.60;59.30;;;;;;5042608;28;20045;-68
2022/04/22 08:05:37;;;;;;;3.85;2.28;;;11.60;59.70;;;;;;5042091;28;20455;-69
2022/04/22 08:08:04;;;;;;;4.07;2.15;;;11.70;59.40;;;;;;5013104;28;20048;-69
2022/04/22 08:10:30;;;;;;;4.05;2.38;;;11.70;59.60;;;;;;5042811;28;20048;-69
2022/04/22 08:12:55;;;;;;;4.73;2.30;;;11.80;59.90;;;;;;5026824;28;20056;-69
2022/04/22 08:15:21;;;;;;;3.20;1.87;;;11.90;59.30;;;;;;5039834;28;20036;-69
2022/04/22 08:17:48;;;;;;;4.43;2.10;;;12.00;59.40;;;;;;5010081;28;20033;-69
2022/04/22 08:20:13;;;;;;;2.90;2.05;;;12.10;60.00;;;;;;5043091;28;20056;-69
2022/04/22 08:22:40;;;;;;;5.53;2.30;;;12.20;59.30;;;;;;5042663;28;20484;-69
2022/04/22 08:25:06;;;;;;;5.90;2.13;;;12.30;59.00;;;;;;5032285;28;20041;-69
2022/04/22 08:27:32;;;;;;;3.85;2.10;;;12.40;59.00;;;;;;5007968;28;20045;-69
2022/04/22 08:29:59;;;;;;;3.95;2.15;;;12.50;58.30;;;;;;5014893;28;20553;-69
2022/04/22 08:32:26;;;;;;;4.45;2.40;;;12.60;58.70;;;;;;5020005;28;20063;-69
2022/04/22 08:34:52;;;;;;;3.65;1.63;;;12.70;57.60;;;;;;5032088;28;20567;-69
2022/04/22 08:37:18;;;;;;;4.38;2.25;;;12.80;56.40;;;;;;5037372;28;20041;-69
2022/04/22 08:39:44;;;;;;;4.43;2.20;;;12.80;56.60;;;;;;5004449;28;20104;-69
2022/04/22 08:42:14;;;;;;;4.43;2.10;;;12.80;57.70;;;;;;5042140;28;20124;-69
2022/04/22 08:44:40;;;;;;;3.45;2.33;;;12.90;58.10;;;;;;5036518;28;20127;-69
2022/04/22 08:50:02;;;;;;;2.58;1.40;;;13.10;55.80;;;;;;5025296;28;20056;-69
2022/04/22 08:52:33;;;;;;;4.43;2.03;;;13.10;55.50;;;;;;5035807;28;20033;-69
2022/04/22 08:55:00;;;;;;;5.37;1.70;;;13.20;54.90;;;;;;5034306;28;20068;-69
2022/04/22 08:57:28;;;;;;;3.88;2.13;;;13.20;55.60;;;;;;5040727;28;20775;-69
2022/04/22 08:59:59;;;;;;;4.00;1.90;;;13.30;55.50;;;;;;5020897;28;20115;-69
2022/04/22 09:02:25;;;;;;;4.60;2.00;;;13.30;56.00;;;;;;5041812;28;20680;-69
2022/04/22 09:04:51;;;;;;;3.27;1.90;;;13.40;55.70;;;;;;5016846;28;20855;-69
2022/04/22 09:07:19;;;;;;;4.50;2.03;;;13.50;55.70;;;;;;5005880;28;20291;-69
2022/04/22 09:09:51;;;;;;;4.27;1.73;;;13.60;55.80;;;;;;5038402;28;20509;-69
2022/04/22 09:12:23;;;;;;;4.17;2.03;;;13.70;54.80;;;;;;5025695;28;20553;-69
2022/04/22 09:14:51;;;;;;;4.10;1.90;;;13.80;55.50;;;;;;5021452;28;20287;-69
2022/04/22 09:17:23;;;;;;;4.57;2.03;;;13.90;55.70;;;;;;5042249;28;20365;-69
2022/04/22 09:19:51;;;;;;;3.77;2.00;;;14.00;54.50;;;;;;5019770;28;20395;-69
2022/04/22 09:22:28;;;;;;;2.77;1.80;;;14.10;54.70;;;;;;5028389;28;20303;-69
2022/04/22 09:24:56;;;;;;;4.63;2.03;;;14.20;54.30;;;;;;5036191;28;20287;-69
2022/04/22 09:27:44;;;;;;;3.37;2.13;;;14.20;54.40;;;;;;5036781;28;20792;-69
2022/04/22 09:30:13;;;;;;;4.73;2.00;;;14.40;54.60;;;;;;5019930;28;20344;-69
2022/04/22 09:32:40;;;;;;;3.53;2.20;;;14.50;53.60;;;;;;5029199;28;20299;-69
2022/04/22 09:35:16;;;;;;;3.83;1.80;;;14.60;53.90;;;;;;5032707;28;20283;-69
2022/04/22 09:43:45;;;;;;;5.50;2.23;;;14.90;52.40;;;;;;5025319;28;20336;-69
2022/04/22 09:46:40;;;;;;;4.97;2.23;;;14.90;52.80;;;;;;5054099;28;20346;-69
2022/04/22 09:49:06;;;;;;;6.68;1.98;;;15.10;53.50;;;;;;5010437;28;20350;-69
2022/04/22 09:51:32;;;;;;;5.03;1.90;;;15.10;51.50;;;;;;5014589;28;20475;-69
2022/04/22 09:54:00;;;;;;;3.93;2.10;;;15.20;50.00;;;;;;5014884;28;20292;-69
2022/04/22 09:56:26;;;;;;;3.50;1.90;;;15.00;50.90;;;;;;5039531;28;20040;-70
2022/04/22 09:58:52;;;;;;;4.97;1.83;;;15.00;51.70;;;;;;5015508;28;20802;-70
2022/04/22 10:01:18;;;;;;;6.30;1.70;;;15.10;52.10;;;;;;5031472;28;20606;-70
2022/04/22 10:03:44;;;;;;;6.40;2.03;;;15.20;51.80;;;;;;5032978;28;20051;-70
2022/04/22 10:06:12;;;;;;;3.63;1.70;;;15.30;51.00;;;;;;5023503;28;20283;-70
2022/04/22 10:08:39;;;;;;;2.93;1.57;;;15.40;50.20;;;;;;5025884;28;20291;-69
2022/04/22 10:11:06;;;;;;;3.07;1.53;;;15.40;50.30;;;;;;5020742;28;20346;-70
2022/04/22 10:13:40;;;;;;;7.43;1.83;;;15.50;50.70;;;;;;5038413;28;20292;-70
2022/04/22 10:16:11;;;;;;;4.87;2.00;;;15.60;49.70;;;;;;5038540;28;20278;-70
2022/04/22 10:18:38;;;;;;;5.17;1.87;;;15.60;49.40;;;;;;5023658;28;20299;-70
2022/04/22 10:21:04;;;;;;;5.87;2.00;;;15.60;50.10;;;;;;5040116;28;20303;-70
2022/04/22 10:23:31;;;;;;;3.50;2.40;;;15.70;50.30;;;;;;5041372;28;20310;-70
2022/04/22 10:25:58;;;;;;;4.33;1.50;;;15.90;49.90;;;;;;5021426;28;20624;-70
2022/04/22 10:28:25;;;;;;;6.40;1.70;;;15.90;48.80;;;;;;5039747;28;20310;-70
2022/04/22 10:30:54;;;;;;;3.47;1.70;;;15.90;49.10;;;;;;5023126;28;20303;-70
2022/04/22 10:33:27;;;;;;;3.93;1.80;;;15.90;47.80;;;;;;5033002;28;20303;-70
2022/04/22 10:35:59;;;;;;;2.90;1.60;;;15.90;48.00;;;;;;5033331;28;20394;-70
2022/04/22 10:38:38;;;;;;;3.10;1.90;;;16.00;47.80;;;;;;5027636;28;20287;-70
2022/04/22 10:41:17;;;;;;;5.73;2.07;;;16.00;48.00;;;;;;5012222;28;20377;-70
2022/04/22 10:47:13;;;;;;;4.50;2.00;;;15.90;48.70;;;;;;5030694;28;20843;-70
2022/04/22 10:49:16;;;;;;;4.05;2.10;;;16.00;50.10;;;;;;5026079;28;20393;-70
2022/04/22 10:51:59;;;;;;;4.17;2.00;;;16.20;49.70;;;;;;5021288;28;20041;-70
2022/04/22 10:54:53;;;;;;;3.67;2.50;;;16.30;48.60;;;;;;5031005;28;20200;-70
2022/04/22 10:57:29;;;;;;;6.73;2.50;;;16.30;48.30;;;;;;5043672;28;20317;-70
2022/04/22 11:00:27;;;;;;;5.87;2.50;;;16.40;48.50;;;;;;5042643;28;20295;-70
2022/04/22 11:03:01;;;;;;;6.47;2.50;;;16.40;49.70;;;;;;5035313;28;20284;-70
2022/04/22 11:05:30;;;;;;;5.23;2.20;;;16.50;49.60;;;;;;5028960;28;20289;-70
2022/04/22 11:07:57;;;;;;;3.97;2.77;;;16.60;48.20;;;;;;5034857;28;20287;-70
2022/04/22 11:10:23;;;;;;;6.10;2.37;;;16.50;48.40;;;;;;4999336;28;20368;-70
2022/04/22 11:12:54;;;;;;;5.33;2.87;;;16.60;49.40;;;;;;5040615;28;20519;-70
2022/04/22 11:15:50;;;;;;;6.17;2.73;;;16.70;49.70;;;;;;5039897;28;20272;-70
2022/04/22 11:18:17;;;;;;;5.63;3.03;;;16.80;50.00;;;;;;5026621;28;20327;-70
2022/04/22 11:20:45;;;;;;;9.07;3.60;;;16.80;51.30;;;;;;5040555;28;20421;-70
2022/04/22 11:23:15;;;;;;;6.23;3.20;;;16.80;51.30;;;;;;5043651;28;20290;-70
2022/04/22 11:25:42;;;;;;;8.13;3.50;;;16.80;51.00;;;;;;5021618;28;20402;-70
2022/04/22 11:28:09;;;;;;;8.63;3.30;;;16.80;51.70;;;;;;5044538;28;20291;-70
2022/04/22 11:30:36;;;;;;;5.77;3.03;;;16.90;51.30;;;;;;5043203;28;20331;-70
2022/04/22 11:33:13;;;;;;;7.40;3.40;;;16.90;51.60;;;;;;5009855;28;20307;-70
2022/04/22 11:35:39;;;;;;;5.50;3.40;;;17.00;52.10;;;;;;5043852;28;20341;-70
2022/04/22 11:38:06;;;;;;;4.23;3.20;;;17.00;51.90;;;;;;5035961;28;20284;-70
2022/04/22 11:40:37;;;;;;;5.13;3.10;;;17.10;51.90;;;;;;5019493;28;20295;-70
2022/04/22 11:43:16;;;;;;;7.37;3.67;;;17.20;51.90;;;;;;5040431;28;20288;-70
2022/04/22 11:45:43;;;;;;;6.83;3.40;;;17.30;52.10;;;;;;5020663;28;20300;-70
2022/04/22 11:48:10;;;;;;;8.90;4.03;;;17.30;51.90;;;;;;5019161;28;20346;-70
2022/04/22 11:50:43;;;;;;;8.40;3.77;;;17.40;50.70;;;;;;5000300;28;20368;-70
2022/04/22 11:53:20;;;;;;;6.63;3.53;;;17.30;52.00;;;;;;5030866;28;20283;-69
2022/04/22 11:55:47;;;;;;;5.93;3.40;;;17.40;52.00;;;;;;5046260;28;20279;-69
2022/04/22 11:58:20;;;;;;;6.40;3.73;;;17.40;51.00;;;;;;5031026;28;20807;-69
2022/04/22 12:06:17;;;;;;;7.97;4.20;;;17.50;51.10;;;;;;5043505;28;20294;-69
2022/04/22 12:08:59;;;;;;;7.40;3.67;;;17.50;52.60;;;;;;5021761;28;20299;-69
2022/04/22 12:11:25;;;;;;;8.73;3.30;;;17.60;49.90;;;;;;5042169;28;20563;-70
2022/04/22 12:13:53;;;;;;;4.67;3.33;;;17.60;49.10;;;;;;5049812;28;20279;-70
2022/04/22 12:16:38;;;;;;;7.40;3.60;;;17.60;48.70;;;;;;5046513;28;20049;-70
2022/04/22 12:19:08;;;;;;;6.63;3.25;;;17.60;50.00;;;;;;5032925;28;20815;-70
2022/04/22 12:21:34;;;;;;;6.60;3.73;;;17.70;49.90;;;;;;5023887;28;20136;-70
2022/04/22 12:24:02;;;;;;;5.03;3.30;;;17.80;51.10;;;;;;5028992;28;20292;-70
2022/04/22 12:26:33;;;;;;;4.60;3.30;;;17.90;50.80;;;;;;5030199;28;20280;-70
2022/04/22 12:29:12;;;;;;;6.10;3.83;;;18.00;49.70;;;;;;5035456;28;20290;-70
2022/04/22 12:31:42;;;;;;;6.70;3.90;;;18.00;49.10;;;;;;5026308;28;20282;-70
2022/04/22 12:34:13;;;;;;;7.10;3.57;;;18.00;47.80;;;;;;5022094;28;20287;-70
2022/04/22 12:36:51;;;;;;;7.80;3.40;;;18.00;46.90;;;;;;5043535;28;20805;-70
2022/04/22 12:39:49;;;;;;;6.33;3.00;;;18.00;46.80;;;;;;5042326;28;20312;-70
2022/04/22 12:42:15;;;;;;;4.53;3.33;;;18.00;47.00;;;;;;5040321;28;20302;-70
2022/04/22 12:52:07;;;;;;;7.30;3.50;;;18.10;47.00;;;;;;5045110;28;20291;-70
2022/04/22 12:52:56;;;;;;;4.75;3.45;;;18.30;46.60;;;;;;5044613;28;20290;-70
2022/04/22 12:55:22;;;;;;;5.40;3.80;;;18.30;46.30;;;;;;5042625;28;20471;-70
2022/04/22 12:58:00;;;;;;;5.17;3.77;;;18.30;47.00;;;;;;5043994;28;20486;-70
2022/04/22 13:00:26;;;;;;;4.20;3.40;;;18.40;46.80;;;;;;5023231;28;20084;-70
2022/04/22 13:02:52;;;;;;;7.53;3.83;;;18.50;47.10;;;;;;5019783;28;20279;-70
2022/04/22 13:05:25;;;;;;;6.60;3.97;;;18.60;46.30;;;;;;5042382;28;20287;-70
2022/04/22 13:07:51;;;;;;;5.67;3.77;;;18.60;45.50;;;;;;5040217;28;20048;-70
2022/04/22 13:10:20;;;;;;;5.50;3.80;;;18.60;45.80;;;;;;5012765;28;20299;-70
2022/04/22 13:12:47;;;;;;;6.53;3.43;;;18.60;45.80;;;;;;5025892;28;20368;-70
2022/04/22 13:15:19;;;;;;;6.37;3.77;;;18.70;45.40;;;;;;5040846;28;20651;-70
2022/04/22 13:17:47;;;;;;;6.03;3.50;;;18.70;45.20;;;;;;5044394;28;20287;-70
2022/04/22 13:20:15;;;;;;;5.53;3.70;;;18.70;44.60;;;;;;5036346;28;20335;-70
2022/04/22 13:22:41;;;;;;;6.00;3.67;;;18.70;44.80;;;;;;5043426;28;20303;-70
2022/04/22 13:25:10;;;;;;;6.97;4.07;;;18.80;44.90;;;;;;5033307;28;20291;-70
2022/04/22 13:27:36;;;;;;;6.00;4.20;;;18.80;45.90;;;;;;5026590;28;20287;-70
2022/04/22 13:30:04;;;;;;;10.20;5.30;;;18.90;46.90;;;;;;5023796;28;20664;-70
2022/04/22 13:32:29;;;;;;;7.03;4.47;;;18.90;49.10;;;;;;5041452;28;20357;-70
2022/04/22 13:34:55;;;;;;;11.67;5.17;;;18.90;49.30;;;;;;5043159;28;20791;-70
2022/04/22 13:37:21;;;;;;;7.90;4.60;;;18.80;49.90;;;;;;5020075;28;20060;-70
2022/04/22 13:39:47;;;;;;;9.93;4.90;;;18.90;49.10;;;;;;5038667;28;20134;-70
2022/04/22 13:42:12;;;;;;;8.90;5.10;;;18.90;49.90;;;;;;5038058;28;20045;-70
2022/04/22 13:52:52;;;;;;;8.10;4.82;;;19.10;49.00;;;;;;5042223;28;20342;-70
2022/04/22 13:55:18;;;;;;;8.00;4.63;;;19.20;49.10;;;;;;5021680;28;20666;-70
2022/04/22 13:57:43;;;;;;;6.40;4.57;;;19.30;48.80;;;;;;5020276;28;20068;-70
2022/04/22 14:00:11;;;;;;;7.93;4.93;;;19.40;47.60;;;;;;5021866;28;20104;-70
2022/04/22 14:02:37;;;;;;;8.37;5.53;;;19.40;47.60;;;;;;5025493;28;20045;-70
2022/04/22 14:05:04;;;;;;;5.63;4.23;;;19.30;47.60;;;;;;5024537;28;20295;-70